Time;durP1;ratioP1;P1;durP2;ratioP2;P2;SDS_P1;SDS_P2;PMS_P1;PMS_P2;Temp;Humidity;BMP_temperature;BMP_pressure;BME280_temperature;BME280_humidity;BME280_pressure;Samples;Min_cycle;Max_cycle;Signal;HPM_P1;HPM_P2
2021/11/01 00:00:17;;;;;;;66.47;28.75;;;;;;;2.42;66.90;96785.98;1687126;83;26047;-80
2021/11/01 00:02:47;;;;;;;;;;;;;;;2.38;66.94;96788.69;1689493;83;25849;-81
2021/11/01 00:05:15;;;;;;;72.47;30.32;;;;;;;2.33;67.20;96783.04;1687162;83;27432;-80
2021/11/01 00:07:41;;;;;;;55.80;24.95;;;;;;;2.29;67.07;96784.42;1687056;83;25768;-80
2021/11/01 00:10:11;;;;;;;46.98;23.22;;;;;;;2.25;67.17;96787.09;1687123;83;25795;-80
2021/11/01 00:12:37;;;;;;;42.03;22.42;;;;;;;2.25;67.26;96783.59;1687071;83;26694;-79
2021/11/01 00:15:06;;;;;;;39.70;19.40;;;;;;;2.23;67.43;96783.77;1687111;83;25769;-80
2021/11/01 00:17:33;;;;;;;40.28;20.15;;;;;;;2.17;67.54;96778.63;1687029;83;27381;-80
2021/11/01 00:19:59;;;;;;;39.55;19.20;;;;;;;2.19;67.64;96782.45;1687006;83;26335;-80
2021/11/01 00:22:26;;;;;;;38.95;18.15;;;;;;;2.24;67.59;96774.78;1687187;83;25752;-80
2021/11/01 00:24:52;;;;;;;42.10;20.02;;;;;;;2.20;67.62;96770.80;1687140;83;26449;-81
2021/11/01 00:27:19;;;;;;;31.10;18.17;;;;;;;2.19;67.73;96771.80;1693845;83;26350;-80
2021/11/01 00:29:46;;;;;;;73.25;27.95;;;;;;;2.17;67.74;96767.97;1693439;83;27327;-80
2021/11/01 00:32:13;;;;;;;95.45;31.65;;;;;;;2.18;67.69;96766.14;1687002;83;25812;-81
2021/11/01 00:34:41;;;;;;;57.53;25.57;;;;;;;2.18;67.72;96766.14;1687030;83;25801;-80
2021/11/01 00:37:09;;;;;;;41.98;20.52;;;;;;;2.16;67.71;96764.18;1687120;83;26079;-80
2021/11/01 00:39:36;;;;;;;69.60;27.42;;;;;;;2.14;67.78;96759.02;1687179;83;25816;-79
2021/11/01 00:42:06;;;;;;;80.45;30.52;;;;;;;2.16;67.86;96762.85;1687131;83;28279;-80
2021/11/01 00:44:33;;;;;;;55.78;25.15;;;;;;;2.14;67.83;96755.53;1687015;83;25780;-82
2021/11/01 00:47:00;;;;;;;47.83;24.80;;;;;;;2.14;67.85;96750.20;1686635;83;25793;-81
2021/11/01 00:49:27;;;;;;;42.78;23.65;;;;;;;2.15;67.90;96749.20;1687026;83;26050;-80
2021/11/01 00:51:59;;;;;;;50.43;22.55;;;;;;;2.16;67.94;96746.37;1687073;83;25262;-80
2021/11/01 00:54:25;;;;;;;35.00;17.23;;;;;;;2.16;67.94;96746.87;1687147;83;29321;-80
2021/11/01 00:56:51;;;;;;;36.98;17.60;;;;;;;2.15;68.02;96741.22;1686974;83;25724;-81
2021/11/01 00:59:18;;;;;;;54.55;21.07;;;;;;;2.15;67.99;96740.72;1686995;83;25771;-81
2021/11/01 01:01:45;;;;;;;35.68;18.90;;;;;;;2.15;68.01;96740.72;1687105;83;26036;-81
2021/11/01 01:04:11;;;;;;;34.83;18.50;;;;;;;2.13;67.99;96736.56;1686974;83;25824;-81
2021/11/01 01:06:38;;;;;;;53.02;26.57;;;;;;;2.12;68.01;96732.24;1687190;83;28062;-82
2021/11/01 01:09:05;;;;;;;51.95;25.82;;;;;;;2.11;68.01;96735.91;1688386;83;25807;-84
2021/11/01 01:11:31;;;;;;;35.50;17.00;;;;;;;2.08;68.04;96732.25;1687151;83;25301;-86
2021/11/01 01:13:58;;;;;;;28.62;15.90;;;;;;;2.02;68.14;96722.32;1687105;83;26017;-81
2021/11/01 01:16:26;;;;;;;34.25;17.27;;;;;;;1.99;68.25;96730.14;1687036;83;25805;-81
2021/11/01 01:18:57;;;;;;;32.38;16.27;;;;;;;1.97;68.28;96729.98;1684037;83;26951;-80
2021/11/01 01:24:08;;;;;;;31.42;16.97;;;;;;;1.92;68.28;96717.72;1680817;83;25744;-80
2021/11/01 01:26:36;;;;;;;35.58;16.35;;;;;;;1.90;68.28;96714.40;1680774;83;25969;-81
2021/11/01 01:29:06;;;;;;;32.00;16.27;;;;;;;1.86;68.29;96707.75;1680841;83;25761;-80
2021/11/01 01:31:33;;;;;;;44.45;20.62;;;;;;;1.83;68.31;96709.42;1680738;83;27371;-80
2021/11/01 01:34:00;;;;;;;108.63;35.43;;;;;;;1.81;68.35;96711.75;1680685;83;26408;-80
2021/11/01 01:36:27;;;;;;;55.28;23.18;;;;;;;1.79;68.32;96709.80;1680948;83;25760;-81
2021/11/01 01:38:54;;;;;;;57.13;23.77;;;;;;;1.76;68.36;96700.82;1680863;83;26658;-81
2021/11/01 01:41:24;;;;;;;57.58;23.85;;;;;;;1.74;68.40;96694.84;1680777;83;25335;-80
2021/11/01 01:43:55;;;;;;;40.48;19.85;;;;;;;1.73;68.36;96694.51;1680766;84;27490;-80
2021/11/01 01:46:24;;;;;;;35.33;18.65;;;;;;;1.73;68.42;96689.19;1680430;83;25883;-81
2021/11/01 01:48:52;;;;;;;32.75;16.60;;;;;;;1.73;68.52;96688.36;1680783;83;25701;-81
2021/11/01 01:51:21;;;;;;;27.98;15.60;;;;;;;1.73;68.54;96688.36;1680836;83;26063;-80
2021/11/01 01:53:50;;;;;;;27.73;15.60;;;;;;;1.69;68.57;96681.75;1680817;84;25799;-81
2021/11/01 01:56:17;;;;;;;27.98;16.77;;;;;;;1.64;68.75;96671.61;1680932;83;26883;-83
2021/11/01 01:58:56;;;;;;;28.38;15.48;;;;;;;1.63;68.98;96674.44;1680433;84;25293;-81
2021/11/01 02:01:23;;;;;;;26.17;14.18;;;;;;;1.57;69.02;96667.17;1679623;83;25777;-82
2021/11/01 02:03:52;;;;;;;25.62;14.07;;;;;;;1.53;69.13;96666.68;1680757;83;26812;-80
2021/11/01 02:06:37;;;;;;;29.48;15.70;;;;;;;1.51;69.12;96666.02;1680694;83;25717;-81
2021/11/01 02:09:14;;;;;;;30.52;15.80;;;;;;;1.53;69.06;96652.05;1680554;83;26968;-81
2021/11/01 02:11:52;;;;;;;33.48;18.07;;;;;;;1.54;69.04;96656.38;1680620;84;25765;-80
2021/11/01 02:14:27;;;;;;;28.77;15.95;;;;;;;1.54;68.99;96657.70;1680643;83;26616;-81
2021/11/01 02:16:54;;;;;;;30.75;16.35;;;;;;;1.47;68.95;96656.72;1680685;83;26020;-81
2021/11/01 02:19:26;;;;;;;27.37;16.12;;;;;;;1.45;69.00;96656.88;1681261;83;26017;-81
2021/11/01 02:22:06;;;;;;;25.25;14.28;;;;;;;1.44;69.06;96651.77;1682965;83;27505;-81
2021/11/01 02:24:57;;;;;;;22.50;14.13;;;;;;;1.41;69.12;96654.27;1695879;83;26397;-80
2021/11/01 02:27:25;;;;;;;23.80;14.25;;;;;;;1.30;69.22;96651.16;1681937;84;25797;-80
2021/11/01 02:29:52;;;;;;;21.23;12.60;;;;;;;1.25;69.33;96649.50;1706701;83;26818;-81
2021/11/01 02:32:20;;;;;;;23.47;13.68;;;;;;;1.26;69.47;96646.67;1686848;83;25742;-83
2021/11/01 02:34:46;;;;;;;25.02;15.53;;;;;;;1.24;69.48;96637.20;1684131;83;27443;-80
2021/11/01 02:37:14;;;;;;;24.30;12.50;;;;;;;1.25;69.54;96638.86;1680579;84;26350;-81
2021/11/01 02:39:51;;;;;;;27.15;13.70;;;;;;;1.23;69.58;96634.21;1680720;84;25875;-81
2021/11/01 02:42:19;;;;;;;23.25;13.95;;;;;;;1.25;69.63;96648.16;1680678;84;26069;-80
2021/11/01 02:44:57;;;;;;;25.68;13.43;;;;;;;1.24;69.58;96639.86;1683331;83;25480;-80
2021/11/01 02:47:25;;;;;;;23.95;13.48;;;;;;;1.23;69.63;96636.38;1684191;83;27405;-80
2021/11/01 02:49:52;;;;;;;22.15;12.40;;;;;;;1.25;69.78;96644.18;1680829;83;25789;-80
2021/11/01 02:52:19;;;;;;;24.70;13.75;;;;;;;1.25;69.79;96633.55;1680722;83;25796;-80
2021/11/01 02:54:46;;;;;;;22.75;14.65;;;;;;;1.26;69.80;96638.69;1680633;83;26038;-80
2021/11/01 02:57:13;;;;;;;33.25;17.92;;;;;;;1.27;69.73;96634.20;1680406;83;25733;-80
2021/11/01 02:59:40;;;;;;;25.55;13.88;;;;;;;1.28;69.70;96634.04;1680420;84;28120;-80
2021/11/01 03:02:07;;;;;;;21.82;12.15;;;;;;;1.28;69.65;96640.69;1686650;83;25783;-80
2021/11/01 03:04:33;;;;;;;17.25;11.05;;;;;;;1.27;69.68;96632.37;1688876;83;25749;-81
2021/11/01 03:07:01;;;;;;;19.27;11.63;;;;;;;1.28;69.71;96621.24;1688636;83;26837;-80
2021/11/01 03:09:32;;;;;;;26.62;15.35;;;;;;;1.28;69.72;96628.72;1688788;83;25802;-80
2021/11/01 03:12:02;;;;;;;18.87;11.48;;;;;;;1.28;69.72;96622.58;1688781;83;27382;-81
2021/11/01 03:14:35;;;;;;;21.25;11.68;;;;;;;1.30;69.81;96621.91;1688628;83;26392;-81
2021/11/01 03:17:03;;;;;;;20.23;12.00;;;;;;;1.32;69.89;96629.22;1688770;83;25889;-80
2021/11/01 03:19:32;;;;;;;18.10;11.63;;;;;;;1.33;69.91;96626.86;1662964;84;26064;-81
2021/11/01 03:22:03;;;;;;;24.25;13.72;;;;;;;1.29;69.80;96621.08;1688811;83;25824;-81
2021/11/01 03:24:35;;;;;;;20.85;12.70;;;;;;;1.28;69.72;96614.09;1688729;84;27556;-81
2021/11/01 03:27:06;;;;;;;29.77;15.58;;;;;;;1.28;69.68;96619.91;1688817;83;25744;-81
2021/11/01 03:29:36;;;;;;;34.48;16.80;;;;;;;1.26;69.60;96618.75;1688806;83;25788;-81
2021/11/01 03:32:07;;;;;;;28.07;15.40;;;;;;;1.23;69.53;96618.26;1688790;83;27029;-81
2021/11/01 03:34:34;;;;;;;21.95;13.28;;;;;;;1.21;69.53;96618.96;1688894;83;26499;-80
2021/11/01 03:37:09;;;;;;;22.02;11.88;;;;;;;1.20;69.61;96619.95;1688805;84;27511;-81
2021/11/01 03:39:32;;;;;;;19.48;11.73;;;;;;;1.18;69.60;96628.10;1688539;84;26123;-81
2021/11/01 03:41:58;;;;;;;20.05;11.43;;;;;;;1.15;69.62;96625.78;1688864;83;25626;-81
2021/11/01 03:44:28;;;;;;;20.27;11.18;;;;;;;1.14;69.65;96620.62;1695455;82;26034;-81
2021/11/01 03:46:56;;;;;;;21.80;12.80;;;;;;;1.12;69.69;96622.63;1711945;83;25758;-80
2021/11/01 03:49:29;;;;;;;16.30;10.40;;;;;;;1.12;69.77;96620.80;1688781;83;27404;-81
2021/11/01 03:52:16;;;;;;;18.05;11.45;;;;;;;1.08;69.80;96615.52;1693173;83;26395;-80
2021/11/01 03:54:40;;;;;;;20.50;11.15;;;;;;;1.08;69.82;96616.84;1687142;84;25740;-81
2021/11/01 03:57:08;;;;;;;18.75;11.83;;;;;;;1.07;69.84;96618.67;1688785;83;26074;-81
2021/11/01 03:59:37;;;;;;;20.30;12.13;;;;;;;1.07;69.80;96617.84;1688642;83;25724;-81
2021/11/01 04:02:06;;;;;;;19.05;12.15;;;;;;;1.06;69.84;96611.70;1688920;83;27362;-81
2021/11/01 04:04:32;;;;;;;20.52;13.08;;;;;;;1.05;69.82;96614.02;1688651;83;25872;-81
2021/11/01 04:07:00;;;;;;;19.77;12.23;;;;;;;1.05;69.74;96612.70;1701997;83;25781;-81
2021/11/01 04:09:26;;;;;;;34.05;16.27;;;;;;;1.05;69.68;96615.35;1691281;83;26055;-81
2021/11/01 04:11:54;;;;;;;29.27;16.67;;;;;;;1.02;69.68;96610.37;1688847;83;25705;-82
2021/11/01 04:14:25;;;;;;;29.23;17.75;;;;;;;1.00;69.67;96605.72;1698200;82;27548;-81
2021/11/01 04:16:58;;;;;;;27.82;17.52;;;;;;;0.99;69.66;96610.70;1710884;82;25788;-81
2021/11/01 04:21:53;;;;;;;88.42;41.35;;;;;;;0.92;69.68;96601.77;1699011;83;27109;-81
2021/11/01 04:24:21;;;;;;;73.37;39.10;;;;;;;0.93;69.75;96606.59;1693195;83;25712;-80
2021/11/01 04:26:49;;;;;;;79.97;41.23;;;;;;;0.92;69.74;96609.74;1694706;83;27444;-81
2021/11/01 04:29:17;;;;;;;90.67;44.90;;;;;;;0.93;69.77;96606.09;1704061;81;25728;-80
2021/11/01 04:31:49;;;;;;;85.75;39.98;;;;;;;0.90;69.75;96599.78;1693136;83;25801;-80
2021/11/01 04:34:25;;;;;;;70.80;33.98;;;;;;;0.89;69.76;96595.96;1693243;83;26004;-80
2021/11/01 04:36:43;;;;;;;37.77;21.93;;;;;;;0.88;69.82;96598.28;1693448;83;25696;-80
2021/11/01 04:39:14;;;;;;;30.43;17.27;;;;;;;0.83;69.93;96591.34;1692995;83;28033;-82
2021/11/01 04:41:59;;;;;;;21.57;13.08;;;;;;;0.78;70.02;96601.64;1692916;83;26258;-80
2021/11/01 04:44:38;;;;;;;26.35;16.32;;;;;;;0.72;70.05;96596.00;1693451;83;25677;-81
2021/11/01 04:54:56;;;;;;;48.02;20.35;;;;;;;0.65;70.20;96592.38;1693131;83;25685;-80
2021/11/01 04:57:24;;;;;;;45.05;21.10;;;;;;;0.64;70.28;96598.68;1692837;83;25793;-80
2021/11/01 04:59:50;;;;;;;110.15;40.45;;;;;;;0.66;70.31;96593.20;1693224;83;26011;-80
2021/11/01 05:02:18;;;;;;;165.88;49.83;;;;;;;0.65;70.17;96585.73;1694052;83;25705;-80
2021/11/01 05:04:47;;;;;;;139.32;44.20;;;;;;;0.64;70.09;96587.23;1706790;81;28613;-81
2021/11/01 05:07:13;;;;;;;164.05;49.90;;;;;;;0.61;70.17;96587.56;1693169;83;25840;-81
2021/11/01 05:09:47;;;;;;;158.68;52.17;;;;;;;0.62;70.17;96583.41;1693313;83;25763;-80
2021/11/01 05:14:54;;;;;;;131.97;45.78;;;;;;;0.57;70.10;96580.95;1693421;83;25685;-80
2021/11/01 05:19:41;;;;;;;93.20;36.25;;;;;;;0.50;70.27;96581.27;1694761;82;26324;-80
2021/11/01 05:24:50;;;;;;;111.25;41.53;;;;;;;0.45;70.50;96576.48;1685921;84;26053;-80
2021/11/01 05:29:53;;;;;;;65.32;29.72;;;;;;;0.48;70.52;96577.48;1685799;85;28556;-81
2021/11/01 05:32:19;;;;;;;;;;;;;;;0.50;70.53;96579.45;1695741;83;25794;-80
2021/11/01 05:34:43;;;;;;;52.33;22.95;;;;;;;0.50;70.66;96571.98;1707748;82;25283;-81
2021/11/01 05:37:10;;;;;;;64.00;28.45;;;;;;;0.49;70.61;96576.95;1698369;83;26692;-80
2021/11/01 05:39:38;;;;;;;89.62;33.25;;;;;;;0.51;70.58;96577.63;1685951;84;25299;-80
2021/11/01 05:42:09;;;;;;;75.55;30.25;;;;;;;0.52;70.59;96571.31;1685856;84;28214;-80
2021/11/01 05:44:35;;;;;;;55.17;24.02;;;;;;;0.51;70.58;96575.80;1685941;84;25959;-80
2021/11/01 05:47:05;;;;;;;57.08;24.12;;;;;;;0.52;70.56;96578.78;1685858;85;25836;-80
2021/11/01 05:49:31;;;;;;;58.42;26.40;;;;;;;0.53;70.57;96574.30;1685908;83;26052;-80
2021/11/01 05:51:58;;;;;;;53.13;25.05;;;;;;;0.55;70.54;96577.63;1686004;84;25750;-81
2021/11/01 05:54:30;;;;;;;57.05;25.85;;;;;;;0.56;70.53;96573.98;1685916;84;27441;-80
2021/11/01 06:10:12;;;;;;;39.83;22.58;;;;;;;0.55;70.77;96567.00;1696929;83;25731;-80
2021/11/01 06:15:27;;;;;;;46.23;23.75;;;;;;;0.55;70.90;96569.66;1694886;83;26028;-80
2021/11/01 06:17:51;;;;;;;35.65;20.32;;;;;;;0.54;70.95;96568.00;1686351;83;25271;-83
2021/11/01 06:20:18;;;;;;;35.88;20.05;;;;;;;0.51;71.02;96560.36;1686517;84;27417;-80
2021/11/01 06:22:44;;;;;;;28.70;17.32;;;;;;;0.51;71.22;96559.86;1687593;84;26370;-80
2021/11/01 06:25:14;;;;;;;27.70;19.07;;;;;;;0.49;71.44;96559.20;1687921;84;25339;-81
2021/11/01 06:27:39;;;;;;;27.60;16.85;;;;;;;0.52;71.52;96560.70;1688047;83;26053;-81
2021/11/01 06:30:24;;;;;;;24.75;15.50;;;;;;;0.53;71.60;96562.36;1687951;84;25765;-80
2021/11/01 06:43:33;;;;;;;33.83;20.30;;;;;;;0.83;71.93;96556.31;1652244;83;26519;-80
2021/11/01 07:15:42;;;;;;;27.90;16.45;;;;;;;1.98;72.08;96540.00;1687786;84;25966;-81
2021/11/01 07:20:54;;;;;;;28.60;16.07;;;;;;;2.25;71.96;96533.28;1689015;83;26036;-83
2021/11/01 08:20:34;;;;;;;17.20;12.35;;;;;;;7.90;67.32;96471.94;1693051;83;25798;-81
2021/11/01 08:23:18;;;;;;;15.45;10.85;;;;;;;8.77;65.99;96476.94;1688630;84;25770;-81
2021/11/01 08:28:09;;;;;;;16.05;9.95;;;;;;;9.54;64.58;96480.27;1683754;84;25994;-82
2021/11/01 08:39:02;;;;;;;13.13;10.65;;;;;;;10.95;61.90;96468.74;1683773;84;25282;-81
2021/11/01 08:44:24;;;;;;;13.85;10.08;;;;;;;11.54;60.29;96464.03;1665666;84;26481;-81
2021/11/01 08:46:44;;;;;;;18.62;10.95;;;;;;;11.81;59.75;96465.14;1687376;83;28351;-81
2021/11/01 09:08:11;;;;;;;15.18;10.28;;;;;;;13.41;54.67;96447.88;1686968;85;26200;-81
2021/11/01 09:18:49;;;;;;;12.53;9.33;;;;;;;14.24;52.20;96439.85;1683966;84;25735;-80
2021/11/01 09:21:31;;;;;;;12.30;8.68;;;;;;;14.40;51.83;96432.13;1684851;83;26176;-80
2021/11/01 09:26:35;;;;;;;12.23;8.88;;;;;;;14.72;50.71;96427.51;1698719;83;28220;-80
2021/11/01 09:29:10;;;;;;;10.35;8.15;;;;;;;14.88;50.29;96420.80;1695693;83;25731;-81
2021/11/01 09:42:14;;;;;;;10.53;7.90;;;;;;;15.72;47.54;96399.73;1698399;83;25820;-81
2021/11/01 09:44:41;;;;;;;10.60;7.80;;;;;;;15.86;46.55;96395.95;1698227;83;25785;-82
2021/11/01 09:47:07;;;;;;;11.83;8.38;;;;;;;16.01;46.65;96397.34;1723595;83;26203;-80
2021/11/01 09:49:34;;;;;;;10.63;7.45;;;;;;;16.24;46.21;96399.27;1710883;83;26128;-81
2021/11/01 09:52:08;;;;;;;9.55;7.80;;;;;;;16.40;45.81;96394.94;1698420;83;27387;-80
2021/11/01 09:54:31;;;;;;;10.58;8.13;;;;;;;16.58;45.50;96388.09;1698610;82;25759;-83
2021/11/01 09:57:04;;;;;;;9.88;7.92;;;;;;;16.74;44.97;96376.12;1698382;84;25257;-81
2021/11/01 09:59:41;;;;;;;10.72;7.83;;;;;;;17.01;44.74;96374.98;1697459;83;26049;-82
2021/11/01 10:02:12;;;;;;;9.15;7.17;;;;;;;17.24;44.34;96377.09;1698371;83;25681;-81
2021/11/01 10:04:48;;;;;;;11.30;8.03;;;;;;;17.44;42.67;96379.72;1698446;83;27376;-83
2021/11/01 10:07:35;;;;;;;9.95;7.83;;;;;;;17.59;43.79;96376.93;1698248;84;25806;-82
2021/11/01 10:09:58;;;;;;;12.40;8.68;;;;;;;17.92;43.57;96378.13;1696571;83;25792;-80
2021/11/01 10:12:35;;;;;;;9.35;7.47;;;;;;;18.17;43.39;96381.24;1665685;84;25986;-81
2021/11/01 10:18:10;;;;;;;9.10;7.40;;;;;;;18.19;41.26;96372.22;1698152;83;27431;-82
2021/11/01 10:20:50;;;;;;;9.35;7.72;;;;;;;18.33;41.45;96370.47;1698167;83;25827;-81
2021/11/01 10:23:24;;;;;;;9.85;8.20;;;;;;;18.43;40.36;96368.20;1693305;84;25784;-83
2021/11/01 10:25:52;;;;;;;11.12;7.80;;;;;;;18.43;39.99;96355.09;1685909;84;26112;-84
2021/11/01 10:28:29;;;;;;;11.97;9.15;;;;;;;18.54;39.83;96347.88;1688011;84;25770;-84
2021/11/01 10:31:09;;;;;;;12.00;7.35;;;;;;;18.77;39.79;96338.12;1687916;84;27434;-83
2021/11/01 10:33:46;;;;;;;8.68;6.75;;;;;;;19.01;39.35;96342.23;1683829;84;25817;-83
2021/11/01 10:36:27;;;;;;;9.25;7.22;;;;;;;19.20;38.97;96340.36;1687875;84;25834;-83
2021/11/01 10:39:03;;;;;;;9.18;7.30;;;;;;;19.32;38.51;96346.81;1687935;84;25970;-84
2021/11/01 10:41:57;;;;;;;9.50;6.90;;;;;;;19.48;38.08;96340.02;1687856;84;25785;-84
2021/11/01 10:58:38;;;;;;;9.58;7.05;;;;;;;20.08;35.50;96315.64;1687680;84;28239;-85
2021/11/01 11:12:13;;;;;;;7.45;6.67;;;;;;;21.12;34.38;96314.64;1687885;84;27597;-87
2021/11/01 11:14:39;;;;;;;9.30;6.60;;;;;;;21.22;34.05;96308.16;1686077;83;25804;-83
2021/11/01 11:17:14;;;;;;;8.10;6.75;;;;;;;21.45;34.08;96306.30;1689707;83;26405;-84
2021/11/01 11:20:06;;;;;;;8.30;6.85;;;;;;;21.53;33.53;96302.83;1693986;81;26232;-83
2021/11/01 11:25:14;;;;;;;8.50;6.90;;;;;;;21.63;33.20;96302.59;1693096;83;27523;-84
2021/11/01 11:48:10;;;;;;;9.03;7.15;;;;;;;21.61;31.79;96270.54;1668950;83;26299;-85
2021/11/01 11:50:32;;;;;;;19.25;13.05;;;;;;;21.64;31.88;96264.97;1690232;83;25819;-83
2021/11/01 11:53:20;;;;;;;18.17;10.93;;;;;;;21.64;31.88;96264.97;1693224;83;28270;-84
2021/11/01 11:56:05;;;;;;;15.25;10.48;;;;;;;21.72;31.70;96265.06;1721157;82;26513;-82
2021/11/01 11:58:39;;;;;;;;;;;;;;;21.71;31.86;96257.13;1701468;83;26462;-81
2021/11/01 12:01:26;;;;;;;16.05;11.05;;;;;;;21.68;31.20;96263.23;1703685;83;26866;-82
2021/11/01 12:03:56;;;;;;;17.82;10.70;;;;;;;21.65;31.94;96243.25;1710656;81;25771;-83
2021/11/01 12:06:57;;;;;;;15.53;9.65;;;;;;;21.77;31.03;96254.50;1686798;83;27348;-81
2021/11/01 12:09:31;;;;;;;18.92;11.35;;;;;;;21.60;31.33;96257.11;1654366;84;25708;-85
2021/11/01 12:17:30;;;;;;;7.35;6.65;;;;;;;21.77;31.20;96244.33;1673236;84;25814;-83
2021/11/01 12:20:06;;;;;;;7.40;6.08;;;;;;;21.77;31.20;96244.33;1673075;84;27357;-83
2021/11/01 12:22:38;;;;;;;7.53;6.65;;;;;;;21.79;30.97;96224.23;1669882;83;25947;-86
2021/11/01 12:25:08;;;;;;;8.38;6.92;;;;;;;21.79;30.97;96224.23;1673201;84;26544;-84
2021/11/01 12:27:38;;;;;;;7.85;6.80;;;;;;;22.14;30.81;96238.25;1666106;84;26155;-83
2021/11/01 12:30:10;;;;;;;7.12;5.90;;;;;;;22.14;30.81;96238.25;1674501;83;25770;-83
2021/11/01 12:32:40;;;;;;;9.95;7.37;;;;;;;22.28;30.69;96233.49;1672900;84;55276;-85
2021/11/01 12:35:20;;;;;;;7.70;5.97;;;;;;;22.23;30.60;96194.56;1672623;84;25949;-85
2021/11/01 12:37:54;;;;;;;8.63;7.55;;;;;;;22.65;29.52;96223.98;1672324;84;25844;-85
2021/11/01 12:40:30;;;;;;;8.03;6.67;;;;;;;22.63;30.04;96233.11;1672794;84;26509;-85
2021/11/01 12:57:14;;;;;;;8.68;7.45;;;;;;;22.97;29.26;96222.27;1692815;83;26087;-84
2021/11/01 12:59:45;;;;;;;7.83;6.85;;;;;;;23.05;29.37;96215.18;1707986;82;27405;-84
2021/11/01 13:02:31;;;;;;;9.58;7.83;;;;;;;23.18;29.07;96209.30;1709270;83;25799;-84
2021/11/01 13:05:01;;;;;;;6.72;6.00;;;;;;;23.24;29.14;96204.69;1693069;83;25815;-84
2021/11/01 13:10:19;;;;;;;7.50;6.70;;;;;;;23.33;28.98;96201.38;1693089;83;26386;-85
2021/11/01 13:17:53;;;;;;;9.28;6.78;;;;;;;23.31;29.01;96198.13;1693172;83;26393;-85
2021/11/01 13:20:22;;;;;;;9.33;6.80;;;;;;;23.35;28.75;96199.11;1693748;83;25981;-84
2021/11/01 13:22:54;;;;;;;;;;;;;;;23.25;28.67;96193.92;1699762;82;25460;-85
2021/11/01 13:28:02;;;;;;;9.20;8.20;;;;;;;23.33;28.67;96189.55;1691610;83;25708;-85
2021/11/01 13:38:44;;;;;;;8.25;6.60;;;;;;;22.93;28.69;96166.83;1697066;83;27375;-86
2021/11/01 13:41:27;;;;;;;8.75;6.40;;;;;;;22.86;28.54;96165.09;1686042;83;25772;-85
2021/11/01 13:43:46;;;;;;;12.82;8.03;;;;;;;22.60;28.81;96157.54;1692227;83;25896;-85
2021/11/01 13:46:15;;;;;;;7.90;7.00;;;;;;;22.63;28.93;96166.54;1685930;84;26794;-86
2021/11/01 13:48:43;;;;;;;7.97;6.50;;;;;;;22.69;28.99;96158.16;1699617;82;25693;-85
2021/11/01 13:51:14;;;;;;;7.70;6.55;;;;;;;22.59;28.77;96157.86;1703838;83;28260;-86
2021/11/01 13:54:05;;;;;;;9.25;7.22;;;;;;;22.50;28.69;96149.58;1689829;83;25724;-86
2021/11/01 13:56:33;;;;;;;7.87;6.47;;;;;;;22.25;28.87;96147.53;1695204;83;25459;-86
2021/11/01 13:59:05;;;;;;;;;;;;;;;22.05;29.23;96154.39;1713228;83;25998;-86
2021/11/01 14:01:42;;;;;;;8.73;7.33;;;;;;;22.03;29.08;96147.58;1698709;82;25701;-86
2021/11/01 14:14:55;;;;;;;10.63;7.75;;;;;;;21.43;30.83;96156.18;1709569;82;25717;-85
2021/11/01 14:17:58;;;;;;;7.58;6.75;;;;;;;21.25;31.22;96141.52;1686306;83;27451;-85
2021/11/01 14:28:13;;;;;;;8.15;6.83;;;;;;;20.27;32.26;96133.41;1665914;85;25805;-85
2021/11/01 14:33:46;;;;;;;8.35;7.12;;;;;;;19.73;32.93;96135.74;1686927;83;26332;-85
2021/11/01 14:58:13;;;;;;;10.78;7.33;;;;;;;16.83;37.43;96152.36;1712698;82;26822;-84
2021/11/01 15:10:58;;;;;;;9.15;7.53;;;;;;;15.50;39.52;96153.78;1704163;83;27402;-84
2021/11/01 15:16:06;;;;;;;17.60;10.25;;;;;;;15.02;40.31;96155.11;1723154;82;25881;-83
2021/11/01 15:20:57;;;;;;;19.90;11.97;;;;;;;14.52;40.91;96163.12;1695891;83;26330;-84
2021/11/01 15:28:54;;;;;;;25.90;12.07;;;;;;;14.06;41.87;96169.69;1690248;83;25729;-84
2021/11/01 15:36:41;;;;;;;43.20;24.15;;;;;;;13.54;42.56;96177.73;1678109;85;27427;-83
2021/11/01 16:17:44;;;;;;;108.75;61.05;;;;;;;11.66;46.32;96185.05;1678247;85;27440;-83
2021/11/01 16:19:58;;;;;;;113.95;63.90;;;;;;;11.29;46.46;96182.03;1680606;84;26410;-83
2021/11/01 16:22:27;;;;;;;110.40;63.48;;;;;;;10.98;46.95;96182.59;1678056;85;26388;-83
2021/11/01 16:24:54;;;;;;;114.88;70.00;;;;;;;10.76;47.45;96188.66;1678191;85;26237;-83
2021/11/01 16:27:23;;;;;;;124.07;74.95;;;;;;;10.49;47.78;96184.92;1678470;85;25661;-83
2021/11/01 16:32:32;;;;;;;129.42;76.95;;;;;;;10.21;48.60;96173.57;1678253;85;25729;-83
2021/11/01 16:34:57;;;;;;;149.27;85.97;;;;;;;10.09;48.93;96176.80;1680631;84;25843;-82
2021/11/01 16:37:37;;;;;;;145.82;85.10;;;;;;;10.12;49.20;96179.02;1678390;85;25945;-82
2021/11/01 16:40:07;;;;;;;145.15;82.78;;;;;;;10.11;49.25;96176.03;1684070;84;25801;-83
2021/11/01 16:42:39;;;;;;;127.65;73.28;;;;;;;10.09;49.46;96175.45;1676933;85;27561;-82
2021/11/01 16:45:14;;;;;;;112.03;62.60;;;;;;;10.01;49.49;96174.47;1677684;85;25848;-82
2021/11/01 16:47:42;;;;;;;103.83;60.15;;;;;;;9.90;49.73;96168.02;1678566;84;25874;-82
2021/11/01 16:50:11;;;;;;;108.55;64.40;;;;;;;9.83;49.99;96169.22;1678399;85;25998;-82
2021/11/01 16:52:40;;;;;;;116.82;66.40;;;;;;;9.74;49.99;96173.63;1678549;84;25907;-82
2021/11/01 16:55:22;;;;;;;114.97;64.82;;;;;;;9.57;50.06;96165.13;1678367;85;27376;-82
2021/11/01 16:57:55;;;;;;;123.92;69.40;;;;;;;9.46;50.44;96168.13;1679830;83;25851;-83
2021/11/01 17:00:31;;;;;;;129.05;74.62;;;;;;;9.30;50.54;96164.77;1683697;84;25741;-82
2021/11/01 17:06:00;;;;;;;120.55;67.45;;;;;;;8.96;50.89;96176.61;1678509;85;25778;-82
2021/11/01 17:08:48;;;;;;;110.48;61.58;;;;;;;8.86;51.44;96172.32;1679385;83;27575;-82
2021/11/01 17:21:55;;;;;;;107.78;60.80;;;;;;;8.22;52.28;96177.01;1693256;83;28139;-82
2021/11/01 17:24:37;;;;;;;106.22;58.17;;;;;;;8.02;52.61;96173.75;1666278;85;26579;-82
2021/11/01 18:36:25;;;;;;;137.15;72.67;;;;;;;5.90;57.21;96173.80;1687911;84;26025;-82
2021/11/01 18:52:07;;;;;;;131.25;74.77;;;;;;;5.28;59.43;96157.77;1656309;86;26670;-81
2021/11/01 18:54:44;;;;;;;162.40;82.37;;;;;;;5.28;59.37;96173.30;1693411;82;25770;-82
2021/11/01 18:57:13;;;;;;;169.15;86.53;;;;;;;5.35;59.41;96175.44;1701310;81;27380;-81
2021/11/01 18:59:41;;;;;;;145.75;78.55;;;;;;;5.38;59.63;96176.37;1714710;82;25746;-81
2021/11/01 19:02:37;;;;;;;152.38;81.70;;;;;;;5.22;59.46;96167.43;1722667;81;25859;-81
2021/11/01 19:07:57;;;;;;;134.27;73.72;;;;;;;5.18;59.76;96180.94;1661218;85;26227;-81
2021/11/01 20:05:17;;;;;;;117.85;62.20;;;;;;;4.34;62.93;96189.52;1687152;83;27385;-80
2021/11/01 20:13:18;;;;;;;123.15;62.40;;;;;;;4.31;63.33;96189.08;1692993;83;26496;-80
2021/11/01 21:25:53;;;;;;;101.97;53.05;;;;;;;5.12;65.33;96177.73;1696762;83;25732;-80
2021/11/01 21:28:21;;;;;;;95.67;50.80;;;;;;;5.08;65.48;96184.52;1691094;83;28494;-80
2021/11/01 21:30:49;;;;;;;98.17;54.48;;;;;;;5.08;65.53;96172.48;1699562;83;25810;-80
2021/11/01 21:33:18;;;;;;;100.38;54.00;;;;;;;5.10;65.54;96170.42;1694937;83;25826;-83
2021/11/01 21:35:50;;;;;;;100.25;53.98;;;;;;;5.14;65.55;96162.30;1703046;83;26180;-81
2021/11/01 21:38:15;;;;;;;101.50;54.30;;;;;;;5.19;65.58;96171.88;1696503;83;25872;-80
2021/11/01 21:40:48;;;;;;;96.75;51.83;;;;;;;5.24;65.62;96161.36;1687145;83;27377;-80
2021/11/01 21:43:14;;;;;;;;;;;;;;;5.27;65.62;96160.95;1689613;83;25767;-80
2021/11/01 21:45:41;;;;;;;84.83;43.10;;;;;;;5.31;66.05;96158.14;1687056;83;25839;-80
2021/11/01 21:48:08;;;;;;;83.62;46.68;;;;;;;5.32;65.82;96158.45;1687114;83;26162;-80
2021/11/01 21:50:35;;;;;;;83.05;44.55;;;;;;;5.38;65.90;96155.47;1687203;83;25325;-80
2021/11/01 21:53:03;;;;;;;79.15;45.92;;;;;;;5.39;65.85;96153.93;1687078;84;27446;-79
2021/11/01 21:55:31;;;;;;;85.85;45.67;;;;;;;5.42;65.91;96154.86;1690793;83;25776;-80
2021/11/01 21:58:01;;;;;;;84.95;49.00;;;;;;;5.46;65.79;96148.55;1688324;84;25843;-80
2021/11/01 22:19:45;;;;;;;79.05;42.58;;;;;;;5.71;66.15;96128.60;1687318;83;27561;-80
2021/11/01 22:22:10;;;;;;;71.42;40.80;;;;;;;5.73;66.35;96119.84;1681607;84;26481;-80
2021/11/01 22:25:13;;;;;;;70.17;39.75;;;;;;;5.74;66.41;96105.42;1681255;84;26260;-81